Time;durP1;ratioP1;P1;durP2;ratioP2;P2;SDS_P1;SDS_P2;PMS_P1;PMS_P2;Temp;Humidity;BMP_temperature;BMP_pressure;BME280_temperature;BME280_humidity;BME280_pressure;Samples;Min_cycle;Max_cycle;Signal;HPM_P1;HPM_P2
2022/08/11 00:00:43;;;;;;;2.65;2.30;;;18.30;99.90;;;;;;5060722;28;20068;-63
2022/08/11 00:03:11;;;;;;;3.22;2.58;;;18.30;99.90;;;;;;5064712;28;20174;-62
2022/08/11 00:05:50;;;;;;;4.25;2.38;;;18.30;99.90;;;;;;5067297;28;20099;-63
2022/08/11 00:08:27;;;;;;;3.13;2.40;;;18.20;99.90;;;;;;5059830;28;20048;-64
2022/08/11 00:11:03;;;;;;;5.13;2.22;;;18.10;99.90;;;;;;5065334;28;20040;-63
2022/08/11 00:13:38;;;;;;;5.13;2.88;;;18.10;99.90;;;;;;5065361;28;20415;-64
2022/08/11 00:16:23;;;;;;;3.10;2.50;;;18.00;99.90;;;;;;5061892;28;20080;-63
2022/08/11 00:18:54;;;;;;;4.03;2.42;;;18.00;99.90;;;;;;5059908;28;20048;-64
2022/08/11 00:21:22;;;;;;;3.15;2.40;;;18.00;99.90;;;;;;5061155;28;20041;-62
2022/08/11 00:24:04;;;;;;;3.30;2.42;;;17.90;99.90;;;;;;5066860;28;20044;-64
2022/08/11 00:26:30;;;;;;;3.05;2.38;;;17.90;99.90;;;;;;5066556;28;20028;-63
2022/08/11 00:29:06;;;;;;;3.17;2.45;;;17.80;99.90;;;;;;5065411;28;20051;-63
2022/08/11 00:31:34;;;;;;;3.40;2.60;;;17.80;99.90;;;;;;5054310;28;20060;-63
2022/08/11 00:34:01;;;;;;;3.55;2.65;;;17.80;99.90;;;;;;5055851;28;20037;-63
2022/08/11 00:36:38;;;;;;;3.63;2.40;;;17.70;99.90;;;;;;5049251;28;20048;-63
2022/08/11 00:39:05;;;;;;;3.33;2.60;;;17.70;99.90;;;;;;5049700;28;20116;-63
2022/08/11 00:41:56;;;;;;;2.92;2.63;;;17.70;99.90;;;;;;5046644;28;20045;-63
2022/08/11 00:44:40;;;;;;;4.07;3.10;;;17.60;99.90;;;;;;5054424;28;20443;-62
2022/08/11 00:47:33;;;;;;;3.58;2.53;;;17.60;99.90;;;;;;5060033;28;20430;-63
2022/08/11 00:50:21;;;;;;;;;;;17.50;99.90;;;;;;5039599;28;20053;-63
2022/08/11 00:52:52;;;;;;;5.55;2.50;;;17.50;99.90;;;;;;5050043;28;19920;-62
2022/08/11 00:55:32;;;;;;;2.88;2.63;;;17.40;99.90;;;;;;5050637;28;20439;-63
2022/08/11 00:58:16;;;;;;;4.72;2.90;;;17.40;99.90;;;;;;5047504;28;20404;-63
2022/08/11 01:00:55;;;;;;;4.22;2.65;;;17.40;99.90;;;;;;5049705;28;20509;-65
2022/08/11 01:03:50;;;;;;;4.05;2.63;;;17.30;99.90;;;;;;5048656;28;20044;-62
2022/08/11 01:06:38;;;;;;;3.35;2.60;;;17.30;99.90;;;;;;5052729;28;20041;-63
2022/08/11 01:09:31;;;;;;;3.17;2.70;;;17.20;99.90;;;;;;5052924;28;20049;-63
2022/08/11 01:12:34;;;;;;;4.32;3.03;;;17.20;99.90;;;;;;5046854;28;20049;-63
2022/08/11 01:15:00;;;;;;;2.90;2.60;;;17.20;99.90;;;;;;5051811;28;20047;-63
2022/08/11 01:17:25;;;;;;;4.38;2.60;;;17.10;99.90;;;;;;5052609;28;20556;-65
2022/08/11 01:20:28;;;;;;;2.75;2.55;;;17.10;99.90;;;;;;5056729;28;20473;-64
2022/08/11 01:23:14;;;;;;;3.58;2.80;;;17.10;99.90;;;;;;5053906;28;20090;-63
2022/08/11 01:26:00;;;;;;;3.05;2.72;;;17.10;99.90;;;;;;5062941;28;20107;-64
2022/08/11 01:29:00;;;;;;;3.83;2.80;;;17.00;99.90;;;;;;5051557;28;20080;-63
2022/08/11 01:31:44;;;;;;;2.95;2.60;;;17.00;99.90;;;;;;5059096;28;20078;-63
2022/08/11 01:34:47;;;;;;;3.35;2.65;;;17.00;99.90;;;;;;5073085;28;20476;-63
2022/08/11 01:37:31;;;;;;;4.28;2.80;;;16.90;99.90;;;;;;5070886;28;20040;-64
2022/08/11 01:40:16;;;;;;;3.20;2.90;;;16.90;99.90;;;;;;5072389;28;20044;-63
2022/08/11 01:46:11;;;;;;;3.85;3.00;;;16.90;99.90;;;;;;5068696;28;20853;-65
2022/08/11 01:48:43;;;;;;;3.38;3.03;;;16.90;99.90;;;;;;5071438;28;20070;-63
2022/08/11 01:51:51;;;;;;;3.22;2.92;;;16.90;99.90;;;;;;5071541;28;20032;-64
2022/08/11 01:54:36;;;;;;;4.63;2.95;;;16.80;99.90;;;;;;5071534;28;20049;-64
2022/08/11 01:57:27;;;;;;;8.43;3.38;;;16.80;99.90;;;;;;5069711;28;20041;-63
2022/08/11 02:00:10;;;;;;;5.80;2.83;;;16.80;99.90;;;;;;5072758;28;20029;-63
2022/08/11 02:02:57;;;;;;;4.32;3.05;;;16.80;99.90;;;;;;5070175;28;20036;-63
2022/08/11 02:06:00;;;;;;;4.13;3.30;;;16.80;99.90;;;;;;5068149;28;20055;-62
2022/08/11 02:08:32;;;;;;;3.53;3.10;;;16.80;99.90;;;;;;5066736;28;20040;-63
2022/08/11 02:11:30;;;;;;;3.43;2.70;;;16.80;99.90;;;;;;5072411;28;20040;-64
2022/08/11 02:14:30;;;;;;;4.43;3.10;;;16.80;99.90;;;;;;5072640;28;20040;-63
2022/08/11 02:17:33;;;;;;;3.65;3.10;;;16.80;99.90;;;;;;5069825;28;20068;-62
2022/08/11 02:26:13;;;;;;;4.47;3.22;;;16.70;99.90;;;;;;5071446;28;20495;-64
2022/08/11 02:28:47;;;;;;;4.03;3.38;;;16.70;99.90;;;;;;5070951;28;20037;-64
2022/08/11 02:34:41;;;;;;;3.70;3.30;;;16.70;99.90;;;;;;5092857;28;20486;-63
2022/08/11 02:37:15;;;;;;;6.10;4.03;;;16.70;99.90;;;;;;5089773;28;20056;-62
2022/08/11 02:40:19;;;;;;;4.55;3.80;;;16.60;99.90;;;;;;5077447;28;20465;-65
2022/08/11 02:42:45;;;;;;;5.72;4.00;;;16.60;99.90;;;;;;5102960;28;20044;-63
2022/08/11 02:45:46;;;;;;;5.05;3.85;;;16.60;99.90;;;;;;5094817;28;20409;-62
2022/08/11 02:51:33;;;;;;;5.15;3.90;;;16.50;99.90;;;;;;5089500;28;20044;-63
2022/08/11 02:54:22;;;;;;;5.45;3.60;;;16.50;99.90;;;;;;5102923;28;20131;-63
2022/08/11 02:56:57;;;;;;;4.57;3.78;;;16.50;99.90;;;;;;5067245;28;20112;-63
2022/08/11 02:59:52;;;;;;;6.57;4.43;;;16.50;99.90;;;;;;5073933;28;20055;-63
2022/08/11 03:02:44;;;;;;;5.38;4.07;;;16.40;99.90;;;;;;5095251;28;20032;-63
2022/08/11 03:05:14;;;;;;;4.43;4.03;;;16.40;99.90;;;;;;5076702;28;20052;-62
2022/08/11 03:07:39;;;;;;;6.13;3.85;;;16.40;99.90;;;;;;5095827;28;20446;-62
2022/08/11 03:10:21;;;;;;;4.82;3.95;;;16.40;99.90;;;;;;5096634;28;20118;-64
2022/08/11 03:19:08;;;;;;;4.10;3.70;;;16.30;99.90;;;;;;5092727;28;20205;-64
2022/08/11 03:21:58;;;;;;;4.93;3.63;;;16.30;99.90;;;;;;5092221;28;20103;-63
2022/08/11 03:24:45;;;;;;;4.85;4.28;;;16.20;99.90;;;;;;5086053;28;20920;-63
2022/08/11 03:27:26;;;;;;;5.78;4.00;;;16.20;99.90;;;;;;5076955;28;20055;-63
2022/08/11 03:30:06;;;;;;;6.07;3.97;;;16.20;99.90;;;;;;5072720;28;20040;-64
2022/08/11 03:34:00;;;;;;;4.55;3.80;;;16.20;99.90;;;;;;5069204;28;20100;-63
2022/08/11 03:35:48;;;;;;;4.93;4.47;;;16.20;99.90;;;;;;5071525;28;20044;-63
2022/08/11 03:38:15;;;;;;;6.63;4.85;;;16.20;99.90;;;;;;5096168;28;20107;-62
2022/08/11 03:44:27;;;;;;;5.72;4.60;;;16.20;99.90;;;;;;4986825;28;20038;-63
2022/08/11 03:47:13;;;;;;;5.28;4.35;;;16.10;99.90;;;;;;4999212;28;20034;-63
2022/08/11 03:49:56;;;;;;;5.22;4.40;;;16.10;99.90;;;;;;4994728;28;20061;-63
2022/08/11 03:52:50;;;;;;;7.18;4.30;;;16.10;99.90;;;;;;4996241;28;20548;-62
2022/08/11 03:55:25;;;;;;;4.93;4.32;;;16.10;99.90;;;;;;4987574;28;20054;-64
2022/08/11 03:58:21;;;;;;;5.22;4.57;;;16.10;99.90;;;;;;4993087;28;20053;-63
2022/08/11 04:01:14;;;;;;;4.80;4.32;;;16.10;99.90;;;;;;4972897;28;20053;-64
2022/08/11 04:04:22;;;;;;;6.88;5.40;;;16.10;99.90;;;;;;4987508;28;20079;-63
2022/08/11 04:07:21;;;;;;;6.07;5.03;;;16.10;99.90;;;;;;4979637;28;20214;-62
2022/08/11 04:10:16;;;;;;;5.00;4.40;;;16.00;99.90;;;;;;4989425;28;20100;-64
2022/08/11 04:13:06;;;;;;;6.95;4.95;;;16.00;99.90;;;;;;4979441;28;20050;-63
2022/08/11 04:16:04;;;;;;;7.80;5.22;;;16.00;99.90;;;;;;4988979;28;20044;-63
2022/08/11 04:18:41;;;;;;;6.03;5.20;;;15.90;99.90;;;;;;4984488;28;20126;-62
2022/08/11 04:21:25;;;;;;;6.30;5.10;;;15.90;99.90;;;;;;5058160;28;20052;-63
2022/08/11 04:24:25;;;;;;;6.68;5.13;;;15.90;99.90;;;;;;5091364;28;20170;-64
2022/08/11 04:27:34;;;;;;;6.57;5.40;;;15.90;99.90;;;;;;5086714;28;20131;-63
2022/08/11 04:30:03;;;;;;;5.80;5.15;;;15.90;99.90;;;;;;5074978;28;20056;-64
2022/08/11 04:32:34;;;;;;;7.75;5.18;;;15.90;99.90;;;;;;5084508;28;20444;-63
2022/08/11 04:35:37;;;;;;;8.00;5.40;;;15.90;99.90;;;;;;5096770;28;20047;-64
2022/08/11 04:38:32;;;;;;;;;;;16.00;99.90;;;;;;5077048;28;20047;-63
2022/08/11 04:41:30;;;;;;;6.15;5.20;;;16.00;99.90;;;;;;5082503;28;19967;-63
2022/08/11 04:44:26;;;;;;;5.82;5.22;;;16.00;99.90;;;;;;5078789;28;20044;-63
2022/08/11 04:47:10;;;;;;;7.40;6.05;;;16.00;99.90;;;;;;5087347;28;20494;-63
2022/08/11 05:02:58;;;;;;;7.85;6.20;;;16.10;99.90;;;;;;5068110;28;20079;-63
2022/08/11 05:05:32;;;;;;;7.70;6.13;;;16.20;99.90;;;;;;5096572;28;20044;-63
2022/08/11 05:08:10;;;;;;;6.78;6.07;;;16.20;99.90;;;;;;5082220;28;20048;-63
2022/08/11 05:10:59;;;;;;;6.57;5.88;;;16.20;99.90;;;;;;5074747;28;20494;-64
2022/08/11 05:37:11;;;;;;;9.27;6.72;;;17.10;99.90;;;;;;5063206;28;20051;-63
2022/08/11 05:56:55;;;;;;;6.95;6.15;;;18.00;99.90;;;;;;5073086;28;20047;-64
2022/08/11 05:59:23;;;;;;;9.55;6.50;;;18.10;99.90;;;;;;5094604;28;20113;-64
2022/08/11 06:01:49;;;;;;;8.30;6.45;;;18.30;99.90;;;;;;5090071;28;20032;-63
2022/08/11 06:04:24;;;;;;;7.43;6.25;;;18.40;99.90;;;;;;5089807;28;20032;-63
2022/08/11 06:06:56;;;;;;;9.77;6.38;;;18.50;99.90;;;;;;5072208;28;20032;-64
2022/08/11 06:09:28;;;;;;;7.10;6.22;;;18.60;99.90;;;;;;5071247;28;20051;-63
2022/08/11 06:11:58;;;;;;;9.15;6.53;;;18.80;99.90;;;;;;5072303;28;20055;-63
2022/08/11 06:14:25;;;;;;;10.07;6.63;;;18.80;99.90;;;;;;5093603;28;20033;-64
2022/08/11 06:16:55;;;;;;;8.77;5.68;;;19.00;99.90;;;;;;5075568;28;20052;-63
2022/08/11 06:19:22;;;;;;;7.40;5.80;;;19.10;99.90;;;;;;5081151;28;20048;-64
2022/08/11 06:21:50;;;;;;;9.25;6.65;;;19.30;99.90;;;;;;5101366;28;20562;-64
2022/08/11 06:24:17;;;;;;;7.55;5.60;;;19.40;99.90;;;;;;5075383;28;20079;-63
2022/08/11 06:26:50;;;;;;;7.25;5.38;;;19.60;99.90;;;;;;5101841;28;20124;-62
2022/08/11 06:29:17;;;;;;;6.10;5.50;;;19.70;99.90;;;;;;5080174;28;20051;-63
2022/08/11 06:31:55;;;;;;;5.90;5.10;;;19.80;99.90;;;;;;5094651;28;20104;-63
2022/08/11 06:35:01;;;;;;;6.32;5.57;;;20.10;99.90;;;;;;5087782;28;20382;-63
2022/08/11 06:37:55;;;;;;;7.95;5.20;;;20.20;99.90;;;;;;5020670;28;20077;-63
2022/08/11 06:44:00;;;;;;;8.45;4.75;;;20.50;99.90;;;;;;5013248;28;20117;-64
2022/08/11 06:46:50;;;;;;;8.13;5.40;;;20.80;99.90;;;;;;5020779;28;20069;-63
2022/08/11 06:52:06;;;;;;;5.68;4.63;;;21.10;99.90;;;;;;5029914;28;20413;-65
2022/08/11 06:54:35;;;;;;;6.15;4.35;;;21.20;99.90;;;;;;5029707;28;20092;-64
2022/08/11 07:02:41;;;;;;;6.15;4.15;;;21.70;99.90;;;;;;5027327;28;20037;-64
2022/08/11 07:05:15;;;;;;;5.60;3.50;;;21.80;99.90;;;;;;5012743;28;20037;-64
2022/08/11 07:15:40;;;;;;;5.82;3.72;;;22.00;99.90;;;;;;5029267;28;20049;-63
2022/08/11 07:17:21;;;;;;;5.18;3.22;;;22.30;99.90;;;;;;5112412;28;20434;-63
2022/08/11 07:28:54;;;;;;;3.03;2.65;;;22.50;99.90;;;;;;5074221;28;20453;-65
2022/08/11 07:31:16;;;;;;;5.15;2.60;;;23.00;99.90;;;;;;5092563;28;20047;-63
2022/08/11 07:33:54;;;;;;;6.28;2.03;;;23.20;99.90;;;;;;5100825;28;20048;-63
2022/08/11 07:36:24;;;;;;;4.18;2.13;;;23.30;99.90;;;;;;5092477;28;20059;-64
2022/08/11 07:38:53;;;;;;;3.45;1.95;;;23.40;99.90;;;;;;5073883;28;20053;-65
2022/08/11 07:41:22;;;;;;;4.05;1.77;;;23.60;99.90;;;;;;5092421;28;20562;-63
2022/08/11 07:43:51;;;;;;;5.30;2.10;;;23.70;99.90;;;;;;5109982;28;20071;-64
2022/08/11 07:54:35;;;;;;;3.15;1.80;;;24.20;99.90;;;;;;5092009;28;20079;-63
2022/08/11 08:19:04;;;;;;;5.97;1.40;;;25.50;99.00;;;;;;5093239;28;20044;-63
2022/08/11 08:21:30;;;;;;;4.15;1.40;;;25.70;98.90;;;;;;5091161;28;20470;-63
2022/08/11 08:23:57;;;;;;;3.42;1.30;;;25.90;98.90;;;;;;5072713;28;20035;-62
2022/08/11 08:31:55;;;;;;;2.50;1.20;;;26.30;97.20;;;;;;5110854;28;20130;-64
2022/08/11 08:34:22;;;;;;;2.80;1.50;;;26.50;97.00;;;;;;5110991;28;20413;-65
2022/08/11 08:36:50;;;;;;;2.78;1.13;;;26.60;96.80;;;;;;5082227;28;20074;-63
2022/08/11 08:39:20;;;;;;;2.75;1.00;;;26.70;96.10;;;;;;5090524;28;20034;-63
2022/08/11 08:41:51;;;;;;;2.78;0.98;;;26.80;96.00;;;;;;5091132;28;20135;-63
2022/08/11 08:44:19;;;;;;;2.70;1.00;;;26.90;95.00;;;;;;5105156;28;20104;-65
2022/08/11 08:46:49;;;;;;;2.20;1.20;;;27.00;94.30;;;;;;5092759;28;20446;-65
2022/08/11 08:49:18;;;;;;;3.20;1.10;;;27.10;93.80;;;;;;5091331;28;20039;-62
2022/08/11 08:51:47;;;;;;;4.75;0.95;;;27.30;93.80;;;;;;5071990;28;20043;-64
2022/08/11 08:54:20;;;;;;;2.13;1.25;;;27.40;93.70;;;;;;5107510;28;20555;-64
2022/08/11 08:56:50;;;;;;;4.55;1.40;;;27.50;93.20;;;;;;5072928;28;20071;-64
2022/08/11 08:59:19;;;;;;;2.33;0.80;;;27.70;93.40;;;;;;5090577;28;20119;-63
2022/08/11 09:01:56;;;;;;;3.22;0.98;;;27.80;93.00;;;;;;5090834;28;20042;-64
2022/08/11 09:04:23;;;;;;;2.60;0.85;;;27.90;91.40;;;;;;5083940;28;20048;-64
2022/08/11 09:06:49;;;;;;;1.80;0.88;;;28.00;91.50;;;;;;5092938;28;20401;-63
2022/08/11 09:09:16;;;;;;;2.50;0.90;;;28.10;90.80;;;;;;5110990;28;20551;-63
2022/08/11 09:11:50;;;;;;;2.67;1.15;;;28.30;89.00;;;;;;5110955;28;20111;-63
2022/08/11 09:14:23;;;;;;;2.20;0.90;;;28.30;89.40;;;;;;5092392;28;20122;-64
2022/08/11 09:16:50;;;;;;;4.28;1.02;;;28.50;89.40;;;;;;5111154;28;20035;-63
2022/08/11 09:19:19;;;;;;;4.38;0.98;;;28.70;90.10;;;;;;5092513;28;20497;-64
2022/08/11 09:27:19;;;;;;;1.88;0.95;;;28.90;85.80;;;;;;5090894;28;20047;-63
2022/08/11 09:29:45;;;;;;;2.33;0.80;;;29.00;84.70;;;;;;5087563;28;20424;-65
2022/08/11 09:32:13;;;;;;;1.85;1.10;;;29.10;85.10;;;;;;5090403;28;20043;-65
2022/08/11 09:34:39;;;;;;;2.78;1.02;;;29.30;83.70;;;;;;5090488;28;20047;-64
2022/08/11 09:45:23;;;;;;;5.28;1.20;;;29.90;81.20;;;;;;5090138;28;20486;-63
2022/08/11 09:47:49;;;;;;;2.05;1.00;;;30.00;80.60;;;;;;5093435;28;20089;-65
2022/08/11 09:50:16;;;;;;;2.97;1.30;;;30.10;82.20;;;;;;5076386;28;20032;-64
2022/08/11 09:52:44;;;;;;;2.92;1.20;;;30.30;78.60;;;;;;5106882;28;20027;-65
2022/08/11 09:55:12;;;;;;;4.32;1.80;;;30.30;77.30;;;;;;5114783;28;20027;-64
2022/08/11 10:00:29;;;;;;;3.58;1.20;;;30.40;76.80;;;;;;5114587;28;20048;-64
2022/08/11 10:02:56;;;;;;;3.13;1.90;;;30.50;78.10;;;;;;5114796;28;20135;-64
2022/08/11 10:08:11;;;;;;;5.47;1.45;;;30.80;78.10;;;;;;5076122;28;20044;-64
2022/08/11 10:10:38;;;;;;;2.70;1.30;;;30.90;75.60;;;;;;5073273;28;20086;-64
2022/08/11 10:13:12;;;;;;;1.80;1.15;;;30.90;75.30;;;;;;5102508;28;20035;-63
2022/08/11 10:15:41;;;;;;;2.58;1.30;;;31.10;75.60;;;;;;5093249;28;21355;-64
2022/08/11 10:21:01;;;;;;;3.33;1.45;;;31.30;74.00;;;;;;5093074;28;20117;-64
2022/08/11 10:33:58;;;;;;;5.78;1.50;;;31.40;73.80;;;;;;5093476;28;20043;-64
2022/08/11 10:34:42;;;;;;;2.60;1.20;;;31.70;73.10;;;;;;5112024;28;20044;-64
2022/08/11 10:37:08;;;;;;;2.50;1.38;;;31.60;71.00;;;;;;5113497;28;20040;-63
2022/08/11 10:39:36;;;;;;;2.15;1.10;;;31.50;70.20;;;;;;5086246;28;20406;-64
2022/08/11 10:44:52;;;;;;;3.05;1.23;;;31.50;71.90;;;;;;5092979;28;20036;-64
2022/08/11 10:47:33;;;;;;;3.85;1.33;;;31.80;72.30;;;;;;5107696;28;20472;-63
2022/08/11 11:01:08;;;;;;;1.35;1.25;;;31.70;68.60;;;;;;5086650;28;20448;-64
2022/08/11 11:03:35;;;;;;;2.22;1.50;;;31.70;68.70;;;;;;5093161;28;20057;-64
2022/08/11 11:06:43;;;;;;;1.92;1.10;;;31.70;68.70;;;;;;5092872;28;20410;-64
2022/08/11 11:09:17;;;;;;;3.38;1.00;;;31.70;69.70;;;;;;5080253;28;20371;-63
2022/08/11 11:20:16;;;;;;;4.90;1.25;;;31.60;69.10;;;;;;5092859;28;20044;-64
2022/08/11 11:22:46;;;;;;;1.95;1.10;;;31.50;67.80;;;;;;5094097;28;20044;-64
2022/08/11 11:25:28;;;;;;;4.00;1.17;;;31.60;67.80;;;;;;5074818;28;20458;-64
2022/08/11 11:28:03;;;;;;;3.15;1.67;;;31.50;68.60;;;;;;5092462;28;20032;-65
2022/08/11 11:30:44;;;;;;;2.20;1.00;;;31.50;66.10;;;;;;5092525;28;20043;-65
2022/08/11 11:33:33;;;;;;;1.27;1.13;;;31.50;67.10;;;;;;5095690;28;20139;-64
2022/08/11 11:36:31;;;;;;;3.35;1.00;;;31.40;66.90;;;;;;5093599;28;20297;-64
2022/08/11 11:38:57;;;;;;;3.28;1.02;;;31.40;67.30;;;;;;5112134;28;20126;-64
2022/08/11 11:41:23;;;;;;;2.88;1.00;;;31.50;67.40;;;;;;5107888;28;20047;-63
2022/08/11 11:43:50;;;;;;;2.65;0.90;;;31.40;66.40;;;;;;5074240;28;20498;-65
2022/08/11 11:46:16;;;;;;;2.90;1.10;;;31.50;65.80;;;;;;5092193;28;20185;-64
2022/08/11 11:48:42;;;;;;;2.63;1.30;;;31.50;66.10;;;;;;5080913;28;20052;-64
2022/08/11 11:51:12;;;;;;;3.42;1.10;;;31.50;66.00;;;;;;5092258;28;20036;-65
2022/08/11 11:53:41;;;;;;;1.35;1.00;;;31.50;65.60;;;;;;5100249;28;20144;-64
2022/08/11 11:56:08;;;;;;;2.08;1.20;;;31.40;66.30;;;;;;5093751;28;20039;-63
2022/08/11 12:01:24;;;;;;;2.90;1.00;;;31.40;65.70;;;;;;5096898;28;20059;-63
2022/08/11 12:03:52;;;;;;;2.85;1.10;;;31.30;66.10;;;;;;5073298;28;20036;-66
2022/08/11 12:06:20;;;;;;;1.63;1.13;;;31.30;66.60;;;;;;5091503;28;20444;-64
2022/08/11 12:08:49;;;;;;;3.95;1.05;;;31.30;65.60;;;;;;5091090;28;20043;-64
2022/08/11 12:14:04;;;;;;;2.65;1.20;;;31.20;65.10;;;;;;5091309;28;20044;-64
2022/08/11 12:16:30;;;;;;;2.53;1.15;;;31.10;66.50;;;;;;5079102;28;20052;-64
2022/08/11 12:18:58;;;;;;;3.72;1.20;;;31.10;65.90;;;;;;5108035;28;20036;-65
2022/08/11 12:21:26;;;;;;;4.35;1.17;;;31.20;65.90;;;;;;5082156;28;20137;-64
2022/08/11 12:29:18;;;;;;;2.25;0.93;;;31.10;66.80;;;;;;5072820;28;20452;-63
2022/08/11 12:31:44;;;;;;;2.13;1.10;;;31.10;65.70;;;;;;5090988;28;20044;-66
2022/08/11 12:34:13;;;;;;;2.35;1.20;;;31.00;66.30;;;;;;5083475;28;20127;-64
2022/08/11 12:36:53;;;;;;;3.58;1.35;;;30.90;65.60;;;;;;5111217;28;20077;-63
2022/08/11 12:45:26;;;;;;;1.75;1.02;;;30.90;65.10;;;;;;5111177;28;20038;-64
2022/08/11 12:53:26;;;;;;;2.17;1.00;;;30.50;65.50;;;;;;5111100;28;20044;-65
2022/08/11 12:58:41;;;;;;;2.58;0.90;;;30.50;65.50;;;;;;5097222;28;20036;-63
2022/08/11 13:06:40;;;;;;;2.28;1.08;;;30.50;66.60;;;;;;5093090;28;20490;-64
2022/08/11 13:09:08;;;;;;;2.55;0.93;;;30.50;66.30;;;;;;5093003;28;20040;-64
2022/08/11 13:14:20;;;;;;;3.10;0.90;;;30.40;65.80;;;;;;5111157;28;20509;-64
2022/08/11 13:19:33;;;;;;;1.25;0.80;;;30.30;66.60;;;;;;5090668;28;20047;-64
2022/08/11 13:21:59;;;;;;;1.98;1.20;;;30.30;66.80;;;;;;5092486;28;20036;-64
2022/08/11 13:24:27;;;;;;;3.63;1.00;;;30.30;66.00;;;;;;5094573;28;20455;-64
2022/08/11 13:26:53;;;;;;;1.92;1.00;;;30.20;65.50;;;;;;5094949;28;20118;-64
2022/08/11 13:29:27;;;;;;;2.85;1.10;;;30.20;66.00;;;;;;5076767;28;20654;-64
2022/08/11 13:31:57;;;;;;;5.68;1.45;;;30.10;65.80;;;;;;5081213;28;20047;-63
2022/08/11 13:34:25;;;;;;;2.53;1.17;;;30.10;66.90;;;;;;5115021;28;20413;-64
2022/08/11 13:36:58;;;;;;;1.80;1.00;;;30.10;66.50;;;;;;5096746;28;20039;-63
2022/08/11 13:39:26;;;;;;;2.25;0.90;;;30.10;66.50;;;;;;5097286;28;20058;-63
2022/08/11 13:41:56;;;;;;;2.78;0.95;;;30.00;66.10;;;;;;5094779;28;20114;-65
2022/08/11 13:44:26;;;;;;;2.30;0.80;;;29.90;66.90;;;;;;5083241;28;20062;-64
2022/08/11 13:46:54;;;;;;;1.77;0.90;;;29.80;67.00;;;;;;5100373;28;20034;-64
2022/08/11 13:49:21;;;;;;;3.70;1.00;;;29.80;66.60;;;;;;5114560;28;20050;-64
2022/08/11 13:51:47;;;;;;;2.90;1.10;;;29.80;66.10;;;;;;5091190;28;20154;-63
2022/08/11 13:54:20;;;;;;;2.13;0.90;;;29.80;65.30;;;;;;5093474;28;20040;-63
2022/08/11 13:56:50;;;;;;;1.55;1.00;;;29.80;65.10;;;;;;5093826;28;20125;-64
2022/08/11 13:59:21;;;;;;;2.05;1.02;;;29.80;64.60;;;;;;5093741;28;20047;-64
2022/08/11 14:01:53;;;;;;;3.30;1.35;;;29.80;65.00;;;;;;5093760;28;20588;-64
2022/08/11 14:04:29;;;;;;;1.48;0.90;;;29.80;64.70;;;;;;5094057;28;20513;-64
2022/08/11 14:06:59;;;;;;;1.80;0.80;;;29.90;64.90;;;;;;5080030;28;20043;-64
2022/08/11 14:09:36;;;;;;;1.30;0.80;;;29.80;64.50;;;;;;5114633;28;20127;-64
2022/08/11 14:14:59;;;;;;;7.00;1.20;;;29.90;65.00;;;;;;5093713;28;20040;-65
2022/08/11 14:17:25;;;;;;;0.95;0.90;;;30.10;65.30;;;;;;5081062;28;20051;-63
2022/08/11 14:19:52;;;;;;;2.33;0.80;;;30.10;65.20;;;;;;5093313;28;20032;-63
2022/08/11 14:22:20;;;;;;;1.70;0.80;;;30.10;65.60;;;;;;5058858;28;20044;-64
2022/08/11 14:24:50;;;;;;;1.77;1.00;;;30.10;65.60;;;;;;5097082;28;20043;-63
2022/08/11 14:27:17;;;;;;;3.42;1.15;;;30.00;66.10;;;;;;5110379;28;20089;-62
2022/08/11 14:29:44;;;;;;;3.08;1.10;;;29.90;65.70;;;;;;5093199;28;20040;-63
2022/08/11 14:32:12;;;;;;;1.83;0.90;;;29.90;65.40;;;;;;5092990;28;20043;-62
2022/08/11 14:34:41;;;;;;;3.30;1.00;;;29.80;65.40;;;;;;5103775;28;20048;-62
2022/08/11 14:37:10;;;;;;;1.52;1.00;;;29.80;66.20;;;;;;5113949;28;20042;-63
2022/08/11 14:39:45;;;;;;;1.40;0.80;;;29.70;66.30;;;;;;5113439;28;20039;-62
2022/08/11 14:48:00;;;;;;;1.10;1.00;;;29.80;66.50;;;;;;5074915;28;20043;-63
2022/08/11 14:50:27;;;;;;;3.78;0.98;;;29.80;65.70;;;;;;5108832;28;20036;-63
2022/08/11 14:52:59;;;;;;;1.55;0.90;;;29.80;65.90;;;;;;5113475;28;20057;-63
2022/08/11 14:58:15;;;;;;;1.10;0.85;;;29.80;66.30;;;;;;5099939;28;19927;-63
2022/08/11 15:00:42;;;;;;;5.43;1.20;;;29.70;65.70;;;;;;5077939;28;20048;-62
2022/08/11 15:03:11;;;;;;;2.42;1.10;;;29.60;65.80;;;;;;5074932;28;20075;-63
2022/08/11 15:05:55;;;;;;;2.17;0.80;;;29.60;66.50;;;;;;5110911;28;20046;-63
2022/08/11 15:08:53;;;;;;;2.25;1.05;;;29.60;66.30;;;;;;5095508;28;20122;-63
2022/08/11 15:12:07;;;;;;;2.20;1.10;;;29.60;66.20;;;;;;5094861;28;20047;-64
2022/08/11 15:13:58;;;;;;;1.67;1.00;;;29.60;65.80;;;;;;5094576;28;20052;-63
2022/08/11 15:19:12;;;;;;;1.90;0.93;;;29.50;65.60;;;;;;5094541;28;20043;-63
2022/08/11 15:24:23;;;;;;;1.65;1.00;;;29.50;66.70;;;;;;5113047;28;20043;-63
2022/08/11 15:37:57;;;;;;;2.05;0.90;;;29.30;67.00;;;;;;5092017;28;20395;-63
2022/08/11 15:46:24;;;;;;;3.65;1.25;;;29.40;66.60;;;;;;5095401;28;20032;-62
2022/08/11 15:49:03;;;;;;;1.95;1.60;;;29.40;66.40;;;;;;5091888;28;20115;-63
2022/08/11 15:51:39;;;;;;;5.55;1.40;;;29.50;66.50;;;;;;5073457;28;20039;-63
2022/08/11 15:54:16;;;;;;;2.28;1.10;;;29.50;66.20;;;;;;5091519;28;20032;-63
2022/08/11 15:56:47;;;;;;;2.35;0.93;;;29.50;66.30;;;;;;5073344;28;20044;-63
2022/08/11 16:04:47;;;;;;;2.35;0.90;;;29.60;66.70;;;;;;5091702;28;20094;-62
2022/08/11 16:07:15;;;;;;;1.60;1.10;;;29.60;67.40;;;;;;5091626;28;20036;-63
2022/08/11 16:09:46;;;;;;;2.17;0.90;;;29.60;67.30;;;;;;5111639;28;20049;-63
2022/08/11 16:12:34;;;;;;;2.50;1.00;;;29.60;66.90;;;;;;5095573;28;20044;-62
2022/08/11 16:18:09;;;;;;;1.58;0.90;;;29.70;65.80;;;;;;5085746;28;20271;-63
2022/08/11 16:20:35;;;;;;;2.28;0.98;;;29.70;66.50;;;;;;5107126;28;20128;-62
2022/08/11 16:23:06;;;;;;;1.17;0.90;;;29.60;66.00;;;;;;5093191;28;20079;-62
2022/08/11 16:25:35;;;;;;;4.83;1.00;;;29.50;66.20;;;;;;5111693;28;20043;-62
2022/08/11 16:28:04;;;;;;;4.00;1.20;;;29.40;66.50;;;;;;5111527;28;20342;-62
2022/08/11 16:30:33;;;;;;;3.67;1.10;;;29.30;66.70;;;;;;5073245;28;20492;-62
2022/08/11 16:33:03;;;;;;;2.22;1.13;;;29.30;67.20;;;;;;5108946;28;20126;-62
2022/08/11 16:38:34;;;;;;;3.00;1.00;;;29.20;67.20;;;;;;5111166;28;20043;-62
2022/08/11 16:41:12;;;;;;;1.67;0.82;;;29.20;66.50;;;;;;5111661;28;20036;-63
2022/08/11 16:49:23;;;;;;;2.58;0.77;;;28.90;66.90;;;;;;5111102;28;19915;-64
2022/08/11 16:51:49;;;;;;;1.98;0.98;;;28.90;66.80;;;;;;5105579;28;20836;-64
2022/08/11 16:54:17;;;;;;;1.48;0.77;;;28.80;66.50;;;;;;5090858;28;20024;-63
2022/08/11 16:56:53;;;;;;;2.88;0.98;;;28.80;66.70;;;;;;5090751;28;20111;-63
2022/08/11 16:59:28;;;;;;;1.20;0.95;;;28.70;67.50;;;;;;5090822;28;20051;-62
2022/08/11 17:02:01;;;;;;;3.67;1.00;;;28.70;66.80;;;;;;5091080;28;20429;-64
2022/08/11 17:13:10;;;;;;;2.70;0.90;;;28.60;67.60;;;;;;5111041;28;20079;-62
2022/08/11 17:16:05;;;;;;;2.35;1.08;;;28.50;68.60;;;;;;5097693;28;20398;-62
2022/08/11 17:18:41;;;;;;;1.77;1.00;;;28.50;69.60;;;;;;5102987;28;20043;-63
2022/08/11 17:21:26;;;;;;;2.13;1.00;;;28.40;69.90;;;;;;5111013;28;20406;-64
2022/08/11 17:24:00;;;;;;;3.60;1.17;;;28.30;70.50;;;;;;5102534;28;20039;-63
2022/08/11 17:29:45;;;;;;;3.33;0.88;;;28.20;71.10;;;;;;5110767;28;20049;-64
2022/08/11 17:35:29;;;;;;;2.03;1.00;;;28.00;71.90;;;;;;5106054;28;20047;-63
2022/08/11 17:38:09;;;;;;;3.83;1.00;;;28.00;72.10;;;;;;5086215;28;20371;-64
2022/08/11 17:48:24;;;;;;;3.17;0.90;;;27.90;73.00;;;;;;5071622;28;20536;-63
2022/08/11 17:48:59;;;;;;;4.90;1.10;;;27.60;73.80;;;;;;5071702;28;20048;-63
2022/08/11 17:59:52;;;;;;;1.85;0.95;;;27.20;74.50;;;;;;5089597;28;21734;-63
2022/08/11 18:05:09;;;;;;;2.78;1.20;;;27.10;75.00;;;;;;5089868;28;20043;-63
